createdAt,value
2018-02-15T00:00:33.256Z,37.89
2018-02-15T00:01:33.202Z,37.60
2018-02-15T00:03:26.012Z,37.60
2018-02-15T00:04:25.930Z,37.70
2018-02-15T00:06:18.707Z,37.70
2018-02-15T00:07:18.653Z,37.79
2018-02-15T00:09:11.460Z,37.87
2018-02-15T00:10:11.377Z,38.16
2018-02-15T00:12:04.162Z,37.96
2018-02-15T00:13:04.109Z,38.06
2018-02-15T00:14:56.915Z,38.26
2018-02-15T00:15:56.831Z,38.45
2018-02-15T00:17:49.611Z,38.06
2018-02-15T00:18:49.558Z,38.35
2018-02-15T00:20:42.367Z,38.45
2018-02-15T00:21:42.284Z,38.16
2018-02-15T00:23:35.062Z,38.45
2018-02-15T00:24:35.008Z,38.35
2018-02-15T00:26:27.818Z,38.06
2018-02-15T00:27:27.733Z,38.16
2018-02-15T00:29:20.524Z,38.06
2018-02-15T00:30:20.457Z,38.06
2018-02-15T00:32:13.266Z,38.06
2018-02-15T00:33:13.181Z,37.87
2018-02-15T00:35:05.963Z,37.39
2018-02-15T00:36:05.906Z,37.96
2018-02-15T00:37:58.716Z,38.35
2018-02-15T00:38:58.632Z,38.06
2018-02-15T00:40:51.409Z,38.06
2018-02-15T00:41:51.355Z,37.96
2018-02-15T00:43:44.162Z,38.06
2018-02-15T00:44:44.079Z,37.77
2018-02-15T00:46:36.856Z,37.77
2018-02-15T00:47:36.801Z,38.06
2018-02-15T00:49:29.607Z,37.95
2018-02-15T00:50:29.523Z,37.96
2018-02-15T00:52:22.300Z,37.85
2018-02-15T00:53:22.245Z,37.37
2018-02-15T00:55:15.055Z,38.04
2018-02-15T00:56:14.972Z,37.76
2018-02-15T00:58:07.749Z,37.95
2018-02-15T00:59:07.694Z,38.04
2018-02-15T01:01:00.503Z,38.14
2018-02-15T01:02:00.417Z,38.14
2018-02-15T01:03:53.194Z,38.04
2018-02-15T01:04:53.140Z,37.95
2018-02-15T01:06:45.951Z,38.04
2018-02-15T01:07:45.862Z,37.95
2018-02-15T01:09:38.639Z,37.95
2018-02-15T01:10:38.584Z,38.04
2018-02-15T01:12:31.391Z,38.33
2018-02-15T01:13:31.308Z,38.24
2018-02-15T01:15:25.081Z,38.24
2018-02-15T01:16:25.025Z,38.33
2018-02-15T01:18:17.832Z,38.14
2018-02-15T01:19:17.748Z,38.04
2018-02-15T01:21:10.525Z,38.43
2018-02-15T01:22:10.471Z,38.33
2018-02-15T01:24:03.282Z,38.43
2018-02-15T01:25:03.195Z,38.33
2018-02-15T01:26:55.974Z,38.43
2018-02-15T01:27:55.920Z,38.24
2018-02-15T01:29:48.731Z,38.43
2018-02-15T01:30:48.646Z,38.33
2018-02-15T01:32:41.425Z,38.24
2018-02-15T01:33:41.370Z,38.24
2018-02-15T01:35:34.178Z,38.24
2018-02-15T01:36:34.094Z,38.43
2018-02-15T01:38:26.878Z,38.33
2018-02-15T01:39:26.824Z,38.62
2018-02-15T01:41:19.634Z,38.33
2018-02-15T01:42:19.549Z,38.24
2018-02-15T01:44:12.324Z,38.33
2018-02-15T01:45:12.270Z,38.43
2018-02-15T01:47:05.077Z,38.04
2018-02-15T01:48:04.993Z,38.24
2018-02-15T01:49:57.777Z,37.95
2018-02-15T01:50:57.721Z,37.66
2018-02-15T01:52:50.525Z,37.37
2018-02-15T01:53:50.440Z,37.46
2018-02-15T01:55:43.217Z,37.46
2018-02-15T01:56:43.162Z,37.66
2018-02-15T01:58:35.966Z,37.66
2018-02-15T01:59:35.883Z,37.66
2018-02-15T02:01:28.662Z,37.95
2018-02-15T02:02:28.608Z,37.66
2018-02-15T02:04:21.421Z,37.85
2018-02-15T02:05:21.333Z,37.85
2018-02-15T02:07:14.113Z,37.46
2018-02-15T02:08:14.057Z,37.85
2018-02-15T02:10:06.865Z,37.18
2018-02-15T02:11:06.781Z,37.18
2018-02-15T02:12:59.558Z,37.56
2018-02-15T02:13:59.503Z,37.76
2018-02-15T02:15:52.310Z,37.66
2018-02-15T02:16:52.226Z,37.76
2018-02-15T02:18:45.007Z,37.85
2018-02-15T02:19:44.948Z,37.66
2018-02-15T02:21:37.758Z,37.85
2018-02-15T02:22:37.672Z,37.66
2018-02-15T02:24:30.455Z,37.27
2018-02-15T02:25:30.401Z,37.37
2018-02-15T02:27:23.208Z,37.37
2018-02-15T02:28:23.124Z,37.66
2018-02-15T02:30:15.903Z,37.66
2018-02-15T02:31:15.849Z,37.37
2018-02-15T02:33:08.664Z,37.56
2018-02-15T02:34:08.570Z,37.95
2018-02-15T02:36:01.352Z,37.66
2018-02-15T02:37:01.298Z,37.85
2018-02-15T02:38:54.106Z,37.95
2018-02-15T02:39:54.022Z,37.66
2018-02-15T02:41:46.803Z,37.76
2018-02-15T02:42:46.744Z,37.46
2018-02-15T02:44:39.553Z,37.18
2018-02-15T02:45:39.470Z,37.37
2018-02-15T02:47:32.245Z,37.46
2018-02-15T02:48:32.192Z,37.56
2018-02-15T02:50:24.998Z,37.95
2018-02-15T02:51:24.916Z,37.85
2018-02-15T02:53:17.692Z,37.27
2018-02-15T02:54:17.637Z,37.66
2018-02-15T02:56:10.444Z,37.66
2018-02-15T02:57:10.359Z,37.85
2018-02-15T02:59:03.135Z,37.66
2018-02-15T03:00:03.082Z,37.76
2018-02-15T03:01:55.889Z,37.85
2018-02-15T03:02:55.805Z,37.27
2018-02-15T03:04:48.582Z,37.56
2018-02-15T03:05:48.527Z,37.76
2018-02-15T03:07:41.334Z,37.95
2018-02-15T03:08:41.251Z,37.76
2018-02-15T03:10:34.029Z,37.85
2018-02-15T03:11:33.975Z,37.93
2018-02-15T03:13:26.781Z,37.85
2018-02-15T03:14:26.697Z,37.95
2018-02-15T03:16:19.474Z,37.85
2018-02-15T03:17:19.419Z,37.85
2018-02-15T03:19:12.225Z,37.76
2018-02-15T03:20:12.141Z,37.66
2018-02-15T03:22:04.924Z,37.37
2018-02-15T03:23:04.870Z,37.76
2018-02-15T03:24:57.679Z,37.37
2018-02-15T03:25:57.599Z,37.18
2018-02-15T03:27:50.372Z,37.27
2018-02-15T03:28:50.316Z,37.08
2018-02-15T03:30:43.131Z,37.27
2018-02-15T03:31:43.049Z,37.26
2018-02-15T03:33:35.823Z,37.37
2018-02-15T03:34:35.769Z,37.46
2018-02-15T03:36:28.575Z,37.08
2018-02-15T03:37:28.490Z,37.08
2018-02-15T03:39:21.270Z,37.27
2018-02-15T03:40:21.215Z,37.37
2018-02-15T03:42:14.021Z,37.08
2018-02-15T03:43:13.936Z,37.46
2018-02-15T03:45:06.714Z,36.69
2018-02-15T03:46:06.659Z,37.08
2018-02-15T03:47:59.467Z,37.27
2018-02-15T03:48:59.381Z,37.16
2018-02-15T03:50:52.159Z,37.06
2018-02-15T03:51:52.111Z,36.89
2018-02-15T03:53:44.912Z,36.99
2018-02-15T03:54:44.826Z,37.08
2018-02-15T03:56:37.603Z,36.69
2018-02-15T03:57:37.548Z,36.69
2018-02-15T03:59:30.355Z,36.51
2018-02-15T04:00:30.271Z,36.31
2018-02-15T04:02:23.047Z,35.93
2018-02-15T04:03:22.992Z,36.02
2018-02-15T04:05:15.801Z,36.60
2018-02-15T04:06:15.716Z,36.41
2018-02-15T04:08:08.494Z,36.02
2018-02-15T04:09:08.441Z,36.41
2018-02-15T04:11:01.248Z,36.69
2018-02-15T04:12:01.163Z,36.41
2018-02-15T04:13:53.940Z,36.51
2018-02-15T04:14:53.885Z,36.02
2018-02-15T04:16:46.696Z,36.21
2018-02-15T04:17:46.611Z,36.11
2018-02-15T04:19:39.391Z,36.69
2018-02-15T04:20:39.335Z,36.21
2018-02-15T04:22:32.144Z,36.11
2018-02-15T04:23:32.058Z,36.31
2018-02-15T04:25:24.834Z,36.02
2018-02-15T04:26:24.780Z,36.11
2018-02-15T04:28:17.584Z,36.21
2018-02-15T04:29:17.503Z,36.31
2018-02-15T04:31:10.281Z,36.11
2018-02-15T04:32:10.227Z,36.02
2018-02-15T04:34:03.034Z,36.51
2018-02-15T04:35:02.949Z,36.21
2018-02-15T04:36:55.735Z,36.11
2018-02-15T04:37:55.680Z,36.21
2018-02-15T04:39:48.481Z,36.31
2018-02-15T04:40:48.398Z,36.60
2018-02-15T04:42:41.177Z,36.89
2018-02-15T04:43:41.122Z,36.79
2018-02-15T04:45:33.929Z,36.79
2018-02-15T04:46:33.844Z,36.99
2018-02-15T04:48:26.620Z,37.08
2018-02-15T04:49:26.566Z,36.79
2018-02-15T04:51:19.377Z,36.69
2018-02-15T04:52:19.294Z,36.89
2018-02-15T04:54:12.072Z,36.69
2018-02-15T04:55:12.022Z,36.99
2018-02-15T04:57:04.823Z,37.08
2018-02-15T04:58:04.739Z,36.89
2018-02-15T04:59:57.514Z,37.08
2018-02-15T05:00:57.462Z,36.89
2018-02-15T05:02:50.266Z,36.79
2018-02-15T05:03:50.184Z,37.08
2018-02-15T05:05:42.961Z,36.51
2018-02-15T05:06:42.905Z,36.99
2018-02-15T05:08:35.714Z,36.69
2018-02-15T05:09:35.629Z,36.89
2018-02-15T05:11:28.414Z,36.89
2018-02-15T05:12:28.355Z,36.89
2018-02-15T05:14:21.162Z,36.79
2018-02-15T05:15:21.078Z,36.79
2018-02-15T05:17:13.856Z,36.89
2018-02-15T05:18:13.822Z,36.02
2018-02-15T05:20:06.610Z,36.79
2018-02-15T05:21:06.527Z,36.60
2018-02-15T05:22:59.324Z,36.89
2018-02-15T05:23:59.270Z,36.79
2018-02-15T05:25:52.086Z,36.60
2018-02-15T05:26:51.991Z,36.99
2018-02-15T05:28:44.770Z,36.89
2018-02-15T05:29:44.716Z,36.99
2018-02-15T05:31:37.526Z,36.69
2018-02-15T05:32:37.439Z,36.60
2018-02-15T05:34:30.215Z,36.79
2018-02-15T05:35:30.193Z,36.60
2018-02-15T05:37:22.970Z,36.99
2018-02-15T05:38:22.885Z,36.60
2018-02-15T05:40:15.660Z,36.69
2018-02-15T05:41:15.606Z,36.89
2018-02-15T05:43:08.415Z,36.89
2018-02-15T05:44:08.329Z,36.79
2018-02-15T05:46:01.108Z,36.99
2018-02-15T05:47:01.052Z,36.89
2018-02-15T05:48:53.861Z,36.69
2018-02-15T05:49:53.776Z,36.69
2018-02-15T05:51:46.556Z,36.79
2018-02-15T05:52:46.503Z,36.60
2018-02-15T05:54:39.327Z,36.60
2018-02-15T05:55:39.226Z,36.89
2018-02-15T05:57:32.004Z,36.89
2018-02-15T05:58:31.950Z,37.18
2018-02-15T06:00:24.757Z,37.08
2018-02-15T06:01:24.673Z,37.08
2018-02-15T06:03:17.450Z,36.99
2018-02-15T06:04:17.396Z,37.18
2018-02-15T06:06:10.200Z,37.16
2018-02-15T06:07:10.116Z,37.08
2018-02-15T06:09:02.893Z,37.37
2018-02-15T06:10:02.839Z,37.16
2018-02-15T06:11:55.646Z,37.18
2018-02-15T06:12:55.562Z,37.16
2018-02-15T06:14:48.339Z,37.08
2018-02-15T06:15:48.283Z,36.99
2018-02-15T06:17:41.089Z,37.08
2018-02-15T06:18:41.005Z,37.08
2018-02-15T06:20:33.786Z,37.27
2018-02-15T06:21:33.727Z,37.18
2018-02-15T06:23:26.533Z,36.87
2018-02-15T06:24:26.449Z,37.08
2018-02-15T06:26:19.226Z,37.08
2018-02-15T06:27:19.174Z,36.97
2018-02-15T06:29:11.979Z,37.08
2018-02-15T06:30:11.896Z,37.08
2018-02-15T06:32:04.671Z,37.08
2018-02-15T06:33:04.618Z,36.99
2018-02-15T06:34:57.423Z,37.18
2018-02-15T06:35:57.364Z,37.16
2018-02-15T06:37:50.117Z,37.18
2018-02-15T06:38:50.065Z,36.89
2018-02-15T06:40:42.871Z,36.99
2018-02-15T06:41:42.787Z,37.18
2018-02-15T06:43:35.566Z,37.08
2018-02-15T06:44:35.512Z,36.99
2018-02-15T06:46:28.319Z,36.89
2018-02-15T06:47:28.234Z,37.08
2018-02-15T06:49:21.010Z,37.18
2018-02-15T06:50:20.956Z,37.08
2018-02-15T06:52:13.766Z,37.18
2018-02-15T06:53:13.682Z,37.26
2018-02-15T06:55:06.459Z,37.08
2018-02-15T06:56:06.406Z,37.18
2018-02-15T06:57:59.210Z,36.99
2018-02-15T06:58:59.126Z,37.27
2018-02-15T07:00:51.905Z,37.27
2018-02-15T07:01:51.851Z,37.18
2018-02-15T07:03:44.657Z,37.18
2018-02-15T07:04:44.573Z,36.89
2018-02-15T07:06:37.350Z,37.08
2018-02-15T07:07:37.295Z,36.99
2018-02-15T07:09:30.104Z,37.08
2018-02-15T07:10:30.022Z,36.79
2018-02-15T07:12:22.798Z,37.18
2018-02-15T07:13:22.743Z,37.08
2018-02-15T07:15:15.591Z,36.89
2018-02-15T07:16:15.468Z,37.18
2018-02-15T07:18:08.242Z,37.08
2018-02-15T07:19:08.187Z,36.89
2018-02-15T07:21:00.995Z,36.79
2018-02-15T07:22:00.911Z,36.79
2018-02-15T07:23:53.687Z,36.99
2018-02-15T07:24:53.636Z,37.08
2018-02-15T07:26:46.443Z,36.99
2018-02-15T07:27:46.359Z,36.60
2018-02-15T07:29:39.135Z,36.69
2018-02-15T07:30:39.081Z,36.89
2018-02-15T07:32:31.889Z,36.79
2018-02-15T07:33:31.804Z,37.08
2018-02-15T07:35:24.581Z,36.60
2018-02-15T07:36:24.534Z,36.60
2018-02-15T07:38:17.333Z,36.79
2018-02-15T07:39:17.248Z,36.89
2018-02-15T07:41:10.028Z,36.60
2018-02-15T07:42:09.973Z,36.89
2018-02-15T07:44:02.778Z,36.99
2018-02-15T07:45:02.695Z,36.79
2018-02-15T07:46:55.477Z,36.69
2018-02-15T07:47:55.418Z,36.79
2018-02-15T07:49:48.233Z,36.79
2018-02-15T07:50:48.140Z,36.79
2018-02-15T07:52:40.916Z,36.60
2018-02-15T07:53:40.862Z,36.60
2018-02-15T07:55:33.672Z,36.79
2018-02-15T07:56:33.586Z,36.99
2018-02-15T07:58:26.364Z,36.79
2018-02-15T07:59:26.309Z,36.79
2018-02-15T08:01:19.135Z,36.79
2018-02-15T08:02:19.034Z,36.99
2018-02-15T08:04:11.811Z,36.60
2018-02-15T08:05:11.757Z,36.60
2018-02-15T08:07:04.598Z,36.79
2018-02-15T08:08:04.515Z,36.51
2018-02-15T08:09:57.291Z,36.41
2018-02-15T08:10:57.236Z,36.69
2018-02-15T08:12:50.044Z,36.79
2018-02-15T08:13:49.959Z,36.41
2018-02-15T08:15:42.734Z,36.51
2018-02-15T08:16:42.681Z,36.89
2018-02-15T08:18:35.487Z,36.60
2018-02-15T08:19:35.405Z,36.69
2018-02-15T08:21:28.181Z,36.99
2018-02-15T08:22:28.127Z,37.06
2018-02-15T08:24:20.951Z,36.79
2018-02-15T08:25:20.849Z,36.00
2018-02-15T08:27:13.626Z,36.60
2018-02-15T08:28:13.575Z,36.41
2018-02-15T08:30:06.381Z,36.79
2018-02-15T08:31:06.294Z,37.56
2018-02-15T08:32:59.073Z,38.24
2018-02-15T08:33:59.019Z,37.46
2018-02-15T08:35:51.829Z,39.87
2018-02-15T08:36:51.742Z,38.91
2018-02-15T08:38:44.521Z,38.62
2018-02-15T08:39:44.466Z,38.24
2018-02-15T08:41:37.276Z,38.24
2018-02-15T08:42:37.193Z,38.72
2018-02-15T08:44:29.969Z,38.24
2018-02-15T08:45:29.915Z,38.33
2018-02-15T08:47:22.739Z,38.24
2018-02-15T08:48:22.638Z,38.24
2018-02-15T08:50:15.415Z,38.31
2018-02-15T08:51:15.364Z,38.43
2018-02-15T08:53:08.172Z,38.53
2018-02-15T08:54:08.087Z,38.62
2018-02-15T08:56:00.866Z,38.33
2018-02-15T08:57:00.813Z,38.62
2018-02-15T08:58:53.618Z,38.53
2018-02-15T08:59:53.534Z,38.60
2018-02-15T09:01:46.313Z,38.53
2018-02-15T09:02:46.258Z,38.60
2018-02-15T09:04:39.065Z,38.51
2018-02-15T09:05:38.981Z,38.60
2018-02-15T09:07:31.758Z,38.51
2018-02-15T09:08:31.706Z,38.31
2018-02-15T09:10:24.514Z,38.60
2018-02-15T09:11:24.432Z,38.60
2018-02-15T09:13:17.207Z,38.51
2018-02-15T09:14:17.153Z,38.51
2018-02-15T09:16:09.977Z,38.51
2018-02-15T09:17:09.877Z,38.41
2018-02-15T09:19:02.651Z,38.51
2018-02-15T09:20:02.597Z,38.51
2018-02-15T09:21:55.407Z,38.31
2018-02-15T09:22:55.321Z,38.51
2018-02-15T09:24:48.098Z,38.59
2018-02-15T09:25:48.043Z,38.59
2018-02-15T09:27:40.848Z,38.49
2018-02-15T09:28:40.763Z,38.49
2018-02-15T09:30:33.541Z,38.12
2018-02-15T09:31:33.487Z,38.59
2018-02-15T09:33:26.292Z,38.49
2018-02-15T09:34:26.206Z,38.29
2018-02-15T09:36:18.982Z,38.39
2018-02-15T09:37:18.927Z,38.49
2018-02-15T09:39:11.736Z,38.39
2018-02-15T09:40:11.649Z,38.68
2018-02-15T09:42:04.425Z,38.39
2018-02-15T09:43:04.373Z,38.49
2018-02-15T09:44:57.174Z,38.49
2018-02-15T09:45:57.090Z,38.39
2018-02-15T09:47:49.865Z,38.29
2018-02-15T09:48:49.811Z,38.39
2018-02-15T09:50:42.616Z,38.59
2018-02-15T09:51:42.531Z,38.49
2018-02-15T09:53:35.307Z,38.39
2018-02-15T09:54:35.252Z,38.29
2018-02-15T09:56:28.056Z,38.47
2018-02-15T09:57:27.971Z,38.49
2018-02-15T09:59:20.749Z,38.78
2018-02-15T10:00:20.694Z,38.29
2018-02-15T10:02:13.519Z,38.59
2018-02-15T10:03:13.413Z,38.59
2018-02-15T10:05:06.189Z,38.56
2018-02-15T10:06:06.133Z,38.39
2018-02-15T10:07:58.940Z,38.29
2018-02-15T10:08:58.856Z,38.37
2018-02-15T10:10:51.632Z,38.56
2018-02-15T10:11:51.576Z,38.28
2018-02-15T10:13:44.397Z,38.18
2018-02-15T10:14:44.299Z,38.28
2018-02-15T10:16:37.071Z,38.18
2018-02-15T10:17:37.014Z,37.99
2018-02-15T10:19:29.820Z,37.99
2018-02-15T10:20:29.733Z,38.18
2018-02-15T10:22:22.516Z,38.56
2018-02-15T10:23:22.462Z,38.28
2018-02-15T10:25:15.271Z,38.18
2018-02-15T10:26:15.181Z,38.28
2018-02-15T10:28:07.955Z,38.47
2018-02-15T10:29:07.900Z,38.47
2018-02-15T10:31:00.710Z,38.28
2018-02-15T10:32:00.621Z,38.47
2018-02-15T10:33:53.397Z,38.18
2018-02-15T10:34:53.342Z,38.18
2018-02-15T10:36:46.148Z,38.56
2018-02-15T10:37:46.061Z,38.56
2018-02-15T10:39:38.837Z,38.28
2018-02-15T10:40:38.781Z,38.37
2018-02-15T10:42:31.591Z,38.47
2018-02-15T10:43:31.500Z,38.56
2018-02-15T10:45:24.276Z,38.56
2018-02-15T10:46:24.222Z,38.56
2018-02-15T10:48:17.027Z,37.99
2018-02-15T10:49:16.942Z,38.09
2018-02-15T10:51:09.716Z,38.28
2018-02-15T10:52:09.661Z,38.26
2018-02-15T10:54:02.469Z,38.07
2018-02-15T10:55:02.382Z,38.16
2018-02-15T10:56:55.158Z,38.16
2018-02-15T10:57:55.118Z,38.26
2018-02-15T10:59:47.908Z,38.54
2018-02-15T11:00:47.821Z,38.26
2018-02-15T11:02:40.605Z,38.45
2018-02-15T11:03:40.542Z,38.45
2018-02-15T11:05:33.353Z,38.54
2018-02-15T11:06:33.264Z,38.35
2018-02-15T11:08:26.045Z,38.45
2018-02-15T11:09:25.984Z,38.54
2018-02-15T11:11:18.790Z,38.26
2018-02-15T11:12:18.704Z,38.45
2018-02-15T11:14:11.480Z,38.54
2018-02-15T11:15:11.426Z,38.54
2018-02-15T11:17:04.231Z,38.45
2018-02-15T11:18:04.147Z,38.45
2018-02-15T11:19:56.920Z,38.16
2018-02-15T11:20:56.866Z,38.45
2018-02-15T11:22:49.683Z,38.26
2018-02-15T11:23:49.580Z,38.26
2018-02-15T11:25:42.356Z,38.64
2018-02-15T11:26:42.302Z,38.84
2018-02-15T11:28:35.106Z,38.26
2018-02-15T11:29:35.020Z,38.26
2018-02-15T11:31:27.794Z,38.26
2018-02-15T11:32:27.739Z,38.64
2018-02-15T11:34:20.544Z,38.54
2018-02-15T11:35:20.458Z,38.54
2018-02-15T11:37:13.234Z,38.54
2018-02-15T11:38:13.177Z,38.64
2018-02-15T11:40:05.984Z,38.54
2018-02-15T11:41:05.897Z,38.45
2018-02-15T11:42:58.671Z,38.16
2018-02-15T11:43:58.613Z,38.54
2018-02-15T11:45:51.417Z,38.54
2018-02-15T11:46:51.331Z,38.45
2018-02-15T11:48:44.103Z,38.26
2018-02-15T11:49:44.077Z,38.35
2018-02-15T11:51:36.870Z,38.43
2018-02-15T11:52:36.767Z,38.34
2018-02-15T11:54:29.551Z,38.24
2018-02-15T11:55:29.490Z,38.35
2018-02-15T11:57:22.294Z,38.24
2018-02-15T11:58:22.210Z,38.34
2018-02-15T12:00:14.979Z,38.72
2018-02-15T12:01:14.925Z,38.26
2018-02-15T12:03:07.729Z,38.24
2018-02-15T12:04:07.642Z,38.34
2018-02-15T12:06:00.417Z,38.72
2018-02-15T12:07:00.363Z,38.72
2018-02-15T12:08:53.170Z,38.81
2018-02-15T12:09:53.085Z,38.43
2018-02-15T12:11:45.860Z,38.53
2018-02-15T12:12:45.805Z,38.53
2018-02-15T12:14:38.609Z,38.43
2018-02-15T12:15:38.524Z,38.62
2018-02-15T12:17:31.295Z,38.91
2018-02-15T12:18:31.239Z,39.01
2018-02-15T12:20:24.059Z,38.91
2018-02-15T12:21:23.956Z,38.81
2018-02-15T12:23:16.729Z,38.62
2018-02-15T12:24:16.673Z,38.72
2018-02-15T12:26:09.474Z,38.72
2018-02-15T12:27:09.389Z,38.34
2018-02-15T12:29:02.164Z,38.72
2018-02-15T12:30:02.109Z,38.62
2018-02-15T12:31:54.913Z,38.72
2018-02-15T12:32:54.827Z,38.53
2018-02-15T12:34:47.602Z,39.11
2018-02-15T12:35:47.544Z,39.18
2018-02-15T12:37:40.375Z,38.91
2018-02-15T12:38:40.266Z,39.20
2018-02-15T12:40:33.041Z,39.28
2018-02-15T12:41:32.983Z,39.20
2018-02-15T12:43:25.786Z,39.49
2018-02-15T12:44:25.699Z,39.29
2018-02-15T12:46:18.473Z,39.20
2018-02-15T12:47:18.416Z,39.28
2018-02-15T12:49:11.218Z,39.20
2018-02-15T12:50:11.133Z,39.29
2018-02-15T12:52:03.905Z,39.37
2018-02-15T12:53:03.848Z,39.29
2018-02-15T12:54:56.669Z,39.29
2018-02-15T12:55:56.576Z,39.18
2018-02-15T12:57:49.341Z,39.18
2018-02-15T12:58:49.284Z,39.18
2018-02-15T13:00:42.090Z,39.87
2018-02-15T13:01:42.005Z,39.56
2018-02-15T13:03:34.778Z,39.56
2018-02-15T13:04:34.722Z,39.08
2018-02-15T13:06:27.527Z,39.08
2018-02-15T13:07:27.442Z,39.47
2018-02-15T13:09:20.218Z,39.08
2018-02-15T13:10:20.163Z,38.70
2018-02-15T13:12:12.967Z,38.99
2018-02-15T13:13:12.880Z,38.60
2018-02-15T13:15:05.654Z,38.60
2018-02-15T13:16:05.598Z,38.60
2018-02-15T13:17:58.404Z,38.99
2018-02-15T13:18:58.317Z,39.18
2018-02-15T13:20:51.092Z,39.18
2018-02-15T13:21:51.037Z,39.18
2018-02-15T13:23:43.840Z,39.37
2018-02-15T13:24:43.754Z,39.47
2018-02-15T13:26:36.527Z,39.47
2018-02-15T13:27:36.472Z,39.18
2018-02-15T13:29:29.274Z,39.47
2018-02-15T13:30:29.187Z,39.66
2018-02-15T13:32:21.962Z,39.47
2018-02-15T13:33:21.906Z,39.18
2018-02-15T13:35:14.705Z,39.66
2018-02-15T13:36:14.617Z,39.18
2018-02-15T13:38:07.391Z,39.66
2018-02-15T13:39:07.335Z,39.56
2018-02-15T13:41:00.136Z,39.95
2018-02-15T13:42:00.050Z,39.76
2018-02-15T13:43:52.824Z,39.66
2018-02-15T13:44:52.767Z,39.56
2018-02-15T13:46:45.572Z,40.05
2018-02-15T13:47:45.485Z,39.47
2018-02-15T13:49:38.258Z,39.66
2018-02-15T13:50:38.202Z,39.66
2018-02-15T13:52:31.005Z,39.56
2018-02-15T13:53:30.922Z,39.47
2018-02-15T13:55:23.694Z,39.66
2018-02-15T13:56:23.638Z,39.76
2018-02-15T13:58:16.445Z,39.37
2018-02-15T13:59:16.363Z,39.56
2018-02-15T14:01:09.134Z,39.28
2018-02-15T14:02:09.077Z,39.37
2018-02-15T14:04:01.900Z,39.95
2018-02-15T14:05:01.795Z,39.26
2018-02-15T14:06:54.569Z,39.47
2018-02-15T14:07:54.512Z,39.56
2018-02-15T14:09:47.315Z,39.16
2018-02-15T14:10:47.228Z,39.73
2018-02-15T14:12:39.999Z,39.16
2018-02-15T14:13:39.945Z,39.35
2018-02-15T14:15:32.748Z,40.02
2018-02-15T14:16:32.666Z,39.45
2018-02-15T14:18:25.440Z,39.54
2018-02-15T14:19:25.383Z,39.73
2018-02-15T14:21:18.185Z,39.54
2018-02-15T14:22:18.099Z,39.83
2018-02-15T14:24:10.872Z,39.45
2018-02-15T14:25:10.814Z,39.64
2018-02-15T14:27:03.618Z,39.83
2018-02-15T14:28:03.532Z,39.73
2018-02-15T14:29:56.306Z,40.02
2018-02-15T14:30:56.249Z,39.73
2018-02-15T14:32:49.053Z,39.35
2018-02-15T14:33:48.965Z,39.73
2018-02-15T14:35:41.740Z,39.64
2018-02-15T14:36:41.683Z,39.64
2018-02-15T14:38:34.491Z,39.73
2018-02-15T14:39:34.401Z,39.83
2018-02-15T14:41:27.175Z,40.02
2018-02-15T14:42:27.120Z,40.02
2018-02-15T14:44:19.939Z,40.22
2018-02-15T14:45:19.834Z,40.22
2018-02-15T14:47:12.611Z,40.12
2018-02-15T14:48:12.551Z,39.83
2018-02-15T14:50:05.352Z,39.54
2018-02-15T14:51:05.266Z,39.73
2018-02-15T14:52:58.046Z,39.73
2018-02-15T14:53:57.988Z,39.64
2018-02-15T14:55:50.793Z,39.73
2018-02-15T14:56:50.708Z,39.73
2018-02-15T14:58:43.483Z,39.73
2018-02-15T14:59:43.429Z,39.73
2018-02-15T15:01:36.238Z,39.83
2018-02-15T15:02:36.152Z,40.02
2018-02-15T15:04:28.923Z,39.93
2018-02-15T15:05:28.867Z,39.83
2018-02-15T15:07:21.668Z,40.02
2018-02-15T15:08:21.581Z,40.22
2018-02-15T15:10:14.357Z,40.22
2018-02-15T15:11:14.298Z,40.02
2018-02-15T15:13:07.099Z,40.22
2018-02-15T15:14:07.013Z,39.91
2018-02-15T15:15:59.783Z,40.22
2018-02-15T15:16:59.729Z,40.00
2018-02-15T15:18:52.535Z,39.81
2018-02-15T15:19:52.441Z,40.00
2018-02-15T15:21:45.213Z,40.00
2018-02-15T15:22:45.157Z,39.81
2018-02-15T15:24:37.960Z,40.00
2018-02-15T15:25:37.874Z,39.91
2018-02-15T15:27:30.647Z,39.83
2018-02-15T15:28:30.588Z,39.91
2018-02-15T15:30:23.389Z,40.22
2018-02-15T15:31:23.302Z,40.29
2018-02-15T15:33:16.078Z,40.48
2018-02-15T15:34:16.028Z,40.41
2018-02-15T15:36:08.840Z,40.29
2018-02-15T15:37:08.735Z,40.67
2018-02-15T15:39:01.507Z,39.81
2018-02-15T15:40:01.451Z,39.91
2018-02-15T15:41:54.253Z,40.20
2018-02-15T15:42:54.166Z,40.12
2018-02-15T15:44:46.938Z,40.20
2018-02-15T15:45:46.880Z,40.10
2018-02-15T15:47:39.682Z,40.20
2018-02-15T15:48:39.595Z,40.00
2018-02-15T15:50:32.369Z,40.10
2018-02-15T15:51:32.312Z,40.10
2018-02-15T15:53:25.114Z,40.20
2018-02-15T15:54:25.030Z,40.20
2018-02-15T15:56:17.798Z,40.39
2018-02-15T15:57:17.739Z,40.29
2018-02-15T15:59:10.560Z,40.20
2018-02-15T16:00:10.455Z,40.20
2018-02-15T16:02:03.230Z,40.48
2018-02-15T16:03:03.172Z,40.39
2018-02-15T16:04:55.977Z,40.39
2018-02-15T16:05:55.891Z,40.39
2018-02-15T16:07:48.664Z,40.39
2018-02-15T16:08:48.606Z,40.39
2018-02-15T16:10:41.411Z,40.39
2018-02-15T16:11:41.322Z,40.39
2018-02-15T16:13:34.098Z,40.39
2018-02-15T16:14:34.042Z,40.39
2018-02-15T16:16:26.846Z,40.58
2018-02-15T16:17:26.762Z,40.48
2018-02-15T16:19:19.535Z,40.48
2018-02-15T16:20:19.474Z,40.58
2018-02-15T16:22:12.275Z,40.67
2018-02-15T16:23:12.189Z,40.20
2018-02-15T16:25:04.961Z,40.39
2018-02-15T16:26:04.904Z,40.48
2018-02-15T16:27:57.704Z,40.67
2018-02-15T16:28:57.617Z,40.20
2018-02-15T16:30:50.388Z,40.48
2018-02-15T16:31:50.330Z,40.48
2018-02-15T16:33:43.135Z,40.39
2018-02-15T16:34:43.047Z,40.39
2018-02-15T16:36:35.820Z,40.39
2018-02-15T16:37:35.762Z,40.39
2018-02-15T16:39:28.597Z,40.29
2018-02-15T16:40:28.511Z,40.48
2018-02-15T16:42:21.284Z,40.39
2018-02-15T16:43:21.227Z,40.39
2018-02-15T16:45:14.032Z,40.48
2018-02-15T16:46:13.944Z,40.39
2018-02-15T16:48:06.715Z,40.58
2018-02-15T16:49:06.658Z,40.67
2018-02-15T16:50:59.459Z,40.48
2018-02-15T16:51:59.371Z,40.39
2018-02-15T16:53:52.142Z,40.48
2018-02-15T16:54:52.085Z,40.58
2018-02-15T16:56:44.937Z,40.67
2018-02-15T16:57:44.798Z,40.29
2018-02-15T16:59:37.568Z,40.48
2018-02-15T17:00:37.511Z,40.67
2018-02-15T17:02:30.312Z,40.58
2018-02-15T17:03:30.227Z,40.58
2018-02-15T17:05:22.994Z,40.58
2018-02-15T17:06:22.937Z,40.47
2018-02-15T17:08:15.758Z,40.75
2018-02-15T17:09:15.653Z,40.56
2018-02-15T17:11:08.424Z,40.75
2018-02-15T17:12:08.367Z,40.66
2018-02-15T17:14:01.167Z,40.84
2018-02-15T17:15:01.079Z,40.84
2018-02-15T17:16:53.853Z,40.66
2018-02-15T17:17:53.795Z,40.66
2018-02-15T17:19:46.597Z,40.84
2018-02-15T17:20:46.511Z,40.75
2018-02-15T17:22:39.282Z,40.27
2018-02-15T17:23:39.224Z,40.47
2018-02-15T17:25:32.025Z,40.37
2018-02-15T17:26:31.938Z,40.17
2018-02-15T17:28:24.710Z,40.47
2018-02-15T17:29:24.653Z,40.56
2018-02-15T17:31:17.457Z,40.37
2018-02-15T17:32:17.370Z,40.37
2018-02-15T17:34:10.141Z,40.47
2018-02-15T17:35:10.084Z,40.56
2018-02-15T17:37:02.888Z,40.47
2018-02-15T17:38:02.801Z,40.47
2018-02-15T17:39:55.572Z,40.27
2018-02-15T17:40:55.514Z,40.75
2018-02-15T17:42:48.316Z,40.66
2018-02-15T17:43:48.229Z,40.66
2018-02-15T17:45:40.999Z,40.27
2018-02-15T17:46:41.032Z,40.75
2018-02-15T17:48:33.744Z,40.56
2018-02-15T17:49:33.657Z,40.66
2018-02-15T17:51:26.428Z,40.75
2018-02-15T17:52:26.372Z,40.84
2018-02-15T17:54:19.171Z,40.84
2018-02-15T17:55:19.085Z,40.66
2018-02-15T17:57:11.857Z,40.75
2018-02-15T17:58:11.801Z,40.84
2018-02-15T18:00:04.601Z,40.84
2018-02-15T18:01:04.515Z,40.75
2018-02-15T18:02:57.284Z,40.56
2018-02-15T18:03:57.227Z,40.75
2018-02-15T18:05:50.037Z,40.75
2018-02-15T18:06:49.945Z,40.75
2018-02-15T18:08:42.717Z,40.75
2018-02-15T18:09:42.659Z,40.66
2018-02-15T18:11:35.461Z,40.75
2018-02-15T18:12:35.373Z,40.75
2018-02-15T18:14:28.146Z,40.37
2018-02-15T18:15:28.091Z,40.56
2018-02-15T18:17:20.892Z,40.08
2018-02-15T18:18:20.805Z,40.56
2018-02-15T18:20:13.577Z,40.37
2018-02-15T18:21:13.520Z,40.56
2018-02-15T18:23:06.324Z,40.37
2018-02-15T18:24:06.237Z,40.37
2018-02-15T18:25:59.008Z,40.47
2018-02-15T18:26:58.951Z,40.56
2018-02-15T18:28:51.752Z,40.47
2018-02-15T18:29:51.664Z,40.56
2018-02-15T18:31:44.436Z,40.56